Culpeper Regional Airport


Codes: KCJR/
Name: Culpeper Regional Airport
City: Culpeper
Country: United States
Elevation: 316 ft.

Photos at Culpeper Regional Airport


   Photos courtesy of SpottingLog. You can add your own sightings and photos by signing up for a free trial today.



No photos found.

Weather at Culpeper Regional Airport


Time (UTC)DescriptionTempratureWindCloud coverageVisibilityPressureHumidity
17-Jun-2024 06:00Overcast Clouds21°C7 mph, S90%10000m1022hPa75%
17-Jun-2024 09:00Overcast Clouds19°C7 mph, S86%10000m1021hPa78%
17-Jun-2024 12:00Broken Clouds20°C9 mph, S80%10000m1022hPa74%
17-Jun-2024 15:00Clear Sky28°C9 mph, SW5%10000m1021hPa59%
17-Jun-2024 18:00Clear Sky32°C7 mph, SW7%10000m1020hPa47%
17-Jun-2024 21:00Broken Clouds33°C11 mph, S51%10000m1018hPa46%
18-Jun-2024 00:00Scattered Clouds28°C7 mph, S38%10000m1019hPa64%
18-Jun-2024 03:00Clear Sky23°C7 mph, SE2%10000m1021hPa75%
18-Jun-2024 06:00Clear Sky22°C7 mph, S3%10000m1022hPa79%
18-Jun-2024 09:00Clear Sky19°C7 mph, S0%10000m1022hPa84%
18-Jun-2024 12:00Few Clouds22°C7 mph, S12%10000m1024hPa73%
18-Jun-2024 15:00Few Clouds29°C7 mph, S12%10000m1024hPa55%
18-Jun-2024 18:00Few Clouds33°C7 mph, S11%10000m1022hPa43%
18-Jun-2024 21:00Clear Sky34°C7 mph, SE7%10000m1021hPa35%
19-Jun-2024 00:00Clear Sky27°C11 mph, SE6%10000m1023hPa59%
19-Jun-2024 03:00Few Clouds21°C4 mph, SE14%10000m1025hPa63%
19-Jun-2024 06:00Scattered Clouds18°C4 mph, S38%10000m1026hPa76%
19-Jun-2024 09:00Scattered Clouds17°C4 mph, S27%10000m1026hPa83%
19-Jun-2024 12:00Scattered Clouds21°C4 mph, SW40%10000m1027hPa74%
19-Jun-2024 15:00Scattered Clouds28°C4 mph, SE44%10000m1027hPa51%
19-Jun-2024 18:00Broken Clouds32°C7 mph, SE57%10000m1026hPa36%
19-Jun-2024 21:00Overcast Clouds32°C7 mph, SE88%10000m1024hPa32%
20-Jun-2024 00:00Broken Clouds26°C9 mph, SE59%10000m1025hPa60%
20-Jun-2024 03:00Few Clouds20°C4 mph, S23%10000m1027hPa79%
20-Jun-2024 06:00Scattered Clouds18°C4 mph, S37%10000m1027hPa87%
20-Jun-2024 09:00Scattered Clouds17°C4 mph, S39%10000m1027hPa92%
20-Jun-2024 12:00Few Clouds21°C4 mph, S19%10000m1028hPa74%
20-Jun-2024 15:00Clear Sky28°C4 mph, S0%10000m1027hPa51%
20-Jun-2024 18:00Clear Sky32°C4 mph, SE0%10000m1025hPa36%
20-Jun-2024 21:00Few Clouds33°C4 mph, SE15%10000m1023hPa31%
21-Jun-2024 00:00Broken Clouds26°C7 mph, SE57%10000m1024hPa56%
21-Jun-2024 03:00Overcast Clouds21°C4 mph, S100%10000m1025hPa75%
21-Jun-2024 06:00Broken Clouds18°C4 mph, S72%10000m1025hPa85%
21-Jun-2024 09:00Overcast Clouds17°C4 mph, S98%10000m1024hPa92%
21-Jun-2024 12:00Overcast Clouds22°C4 mph, SW99%10000m1025hPa73%
21-Jun-2024 15:00Overcast Clouds29°C2 mph, S100%10000m1024hPa48%
21-Jun-2024 18:00Overcast Clouds34°C4 mph, S100%10000m1021hPa33%
21-Jun-2024 21:00Overcast Clouds34°C4 mph, SW100%10000m1019hPa30%
22-Jun-2024 00:00Overcast Clouds28°C7 mph, S100%10000m1019hPa53%
22-Jun-2024 03:00Overcast Clouds22°C4 mph, S94%10000m1020hPa71%